Time;durP1;ratioP1;P1;durP2;ratioP2;P2;SDS_P1;SDS_P2;PMS_P1;PMS_P2;Temp;Humidity;BMP_temperature;BMP_pressure;BME280_temperature;BME280_humidity;BME280_pressure;Samples;Min_cycle;Max_cycle;Signal;HPM_P1;HPM_P2
2023/12/20 00:00:11;;;;;;;68.85;62.33;;;;;;;;;;4197364;28;20036;-57
2023/12/20 00:02:13;;;;;;;69.43;62.15;;;;;;;;;;4197167;28;20377;-57
2023/12/20 00:04:14;;;;;;;57.15;52.28;;;;;;;;;;4197018;28;20043;-56
2023/12/20 00:06:16;;;;;;;63.65;58.22;;;;;;;;;;4197076;28;20051;-57
2023/12/20 00:08:18;;;;;;;61.90;56.42;;;;;;;;;;4200366;28;20093;-56
2023/12/20 00:10:20;;;;;;;61.92;56.40;;;;;;;;;;4208516;28;20083;-57
2023/12/20 00:12:22;;;;;;;64.15;58.25;;;;;;;;;;4205910;28;20037;-56
2023/12/20 00:14:23;;;;;;;65.43;59.25;;;;;;;;;;4196947;28;20037;-56
2023/12/20 00:16:25;;;;;;;78.00;70.13;;;;;;;;;;4196973;28;20040;-56
2023/12/20 00:18:26;;;;;;;60.47;55.10;;;;;;;;;;4196915;28;20048;-56
2023/12/20 00:20:28;;;;;;;55.85;51.42;;;;;;;;;;4196954;28;20044;-56
2023/12/20 00:22:30;;;;;;;59.22;54.28;;;;;;;;;;4196922;28;20040;-56
2023/12/20 00:24:32;;;;;;;55.03;50.70;;;;;;;;;;4196680;28;20052;-56
2023/12/20 00:26:34;;;;;;;51.75;47.63;;;;;;;;;;4196848;28;20468;-56
2023/12/20 00:28:35;;;;;;;55.05;51.05;;;;;;;;;;4196917;28;20063;-56
2023/12/20 00:30:37;;;;;;;49.53;46.15;;;;;;;;;;4196861;28;20116;-56
2023/12/20 00:32:39;;;;;;;44.80;41.10;;;;;;;;;;4195752;28;20043;-56
2023/12/20 00:34:41;;;;;;;49.60;45.93;;;;;;;;;;4196965;28;20296;-56
2023/12/20 00:36:42;;;;;;;47.67;43.97;;;;;;;;;;4196666;28;20044;-56
2023/12/20 00:38:44;;;;;;;52.63;48.72;;;;;;;;;;4196835;28;20044;-56
2023/12/20 00:40:46;;;;;;;51.47;47.67;;;;;;;;;;4196679;28;20071;-56
2023/12/20 00:42:48;;;;;;;52.92;49.08;;;;;;;;;;4196850;28;20040;-56
2023/12/20 00:44:50;;;;;;;50.47;46.35;;;;;;;;;;4196742;28;20051;-56
2023/12/20 00:46:52;;;;;;;48.92;45.08;;;;;;;;;;4196941;28;20036;-56
2023/12/20 00:48:53;;;;;;;55.85;51.72;;;;;;;;;;4196650;28;20127;-56
2023/12/20 00:50:55;;;;;;;53.83;49.53;;;;;;;;;;4196656;28;20044;-57
2023/12/20 00:52:57;;;;;;;56.17;51.67;;;;;;;;;;4207259;28;20046;-56
2023/12/20 00:54:58;;;;;;;54.93;50.50;;;;;;;;;;4199960;28;20048;-57
2023/12/20 00:57:00;;;;;;;51.33;47.63;;;;;;;;;;4199950;28;20519;-59
2023/12/20 00:59:02;;;;;;;51.15;47.47;;;;;;;;;;4183266;28;20810;-60
2023/12/20 01:01:03;;;;;;;53.80;50.20;;;;;;;;;;4182771;28;20450;-60
2023/12/20 01:03:05;;;;;;;50.22;46.08;;;;;;;;;;4194369;28;20041;-60
2023/12/20 01:05:09;;;;;;;54.53;50.83;;;;;;;;;;4199740;28;20050;-59
2023/12/20 01:07:11;;;;;;;53.65;50.15;;;;;;;;;;4199642;28;20404;-59
2023/12/20 01:09:13;;;;;;;52.17;48.45;;;;;;;;;;4210465;28;20036;-60
2023/12/20 01:11:14;;;;;;;48.70;45.28;;;;;;;;;;4201493;28;20559;-60
2023/12/20 01:13:16;;;;;;;50.30;46.63;;;;;;;;;;4199521;28;20036;-60
2023/12/20 01:15:17;;;;;;;53.07;49.37;;;;;;;;;;4199518;28;20037;-59
2023/12/20 01:17:19;;;;;;;51.47;48.17;;;;;;;;;;4199696;28;20037;-60
2023/12/20 01:19:21;;;;;;;47.90;44.58;;;;;;;;;;4199615;28;20047;-60
2023/12/20 01:21:23;;;;;;;54.78;50.47;;;;;;;;;;4199566;28;20098;-59
2023/12/20 01:23:25;;;;;;;65.25;59.20;;;;;;;;;;4199466;28;20064;-60
2023/12/20 01:25:26;;;;;;;71.32;64.43;;;;;;;;;;4199242;28;20545;-59
2023/12/20 01:27:28;;;;;;;72.47;65.45;;;;;;;;;;4199363;28;20472;-59
2023/12/20 01:29:29;;;;;;;73.90;66.47;;;;;;;;;;4199472;28;20446;-60
2023/12/20 01:31:31;;;;;;;73.43;65.65;;;;;;;;;;4199182;28;20317;-59
2023/12/20 01:33:33;;;;;;;67.67;61.20;;;;;;;;;;4199578;28;20044;-59
2023/12/20 01:35:34;;;;;;;69.38;62.75;;;;;;;;;;4199173;28;20378;-60
2023/12/20 01:37:36;;;;;;;66.75;60.80;;;;;;;;;;4199074;28;20522;-59
2023/12/20 01:39:38;;;;;;;62.33;57.22;;;;;;;;;;4199202;28;20044;-59
2023/12/20 01:41:40;;;;;;;65.10;59.20;;;;;;;;;;4198871;28;20048;-58
2023/12/20 01:43:41;;;;;;;60.33;54.78;;;;;;;;;;4199131;28;20040;-59
2023/12/20 01:45:52;;;;;;;63.83;58.30;;;;;;;;;;4199040;28;20090;-59
2023/12/20 01:47:58;;;;;;;59.50;54.92;;;;;;;;;;4198911;28;20040;-60
2023/12/20 01:50:03;;;;;;;61.47;56.15;;;;;;;;;;4198970;28;20036;-59
2023/12/20 01:52:05;;;;;;;64.03;58.13;;;;;;;;;;4198859;28;20040;-60
2023/12/20 01:54:08;;;;;;;64.95;59.08;;;;;;;;;;4198681;28;20135;-59
2023/12/20 01:56:10;;;;;;;69.23;62.27;;;;;;;;;;4198943;28;20094;-60
2023/12/20 01:58:13;;;;;;;65.07;59.38;;;;;;;;;;4197979;28;20124;-59
2023/12/20 02:00:14;;;;;;;;;;;;;;;;;;4199140;28;20044;-57
2023/12/20 02:02:16;;;;;;;66.40;59.83;;;;;;;;;;4208592;22;19921;-65
2023/12/20 02:04:18;;;;;;;59.90;54.67;;;;;;;;;;4196988;28;20049;-65
2023/12/20 02:06:21;;;;;;;60.05;54.53;;;;;;;;;;4181345;28;20033;-65
2023/12/20 02:08:23;;;;;;;;;;;;;;;;;;4190714;28;20085;-64
2023/12/20 02:10:25;;;;;;;56.85;52.33;;;;;;;;;;4209928;28;19966;-65
2023/12/20 02:12:26;;;;;;;57.78;53.40;;;;;;;;;;4198699;28;20036;-65
2023/12/20 02:14:28;;;;;;;56.25;51.80;;;;;;;;;;4198945;28;20386;-65
2023/12/20 02:16:30;;;;;;;59.90;54.80;;;;;;;;;;4198603;28;20044;-65
2023/12/20 02:18:31;;;;;;;61.85;57.00;;;;;;;;;;4198553;28;20570;-65
2023/12/20 02:20:36;;;;;;;61.42;56.47;;;;;;;;;;4181353;28;20051;-64
2023/12/20 02:22:38;;;;;;;61.43;57.00;;;;;;;;;;4198621;28;20098;-64
2023/12/20 02:24:40;;;;;;;57.53;52.75;;;;;;;;;;4198515;28;20344;-64
2023/12/20 02:26:41;;;;;;;58.10;53.60;;;;;;;;;;4197444;28;20139;-65
2023/12/20 02:28:47;;;;;;;61.63;56.55;;;;;;;;;;4198662;28;20063;-65
2023/12/20 02:30:49;;;;;;;60.83;55.25;;;;;;;;;;4198280;28;20438;-64
2023/12/20 02:32:51;;;;;;;57.70;52.85;;;;;;;;;;4198657;28;20040;-64
2023/12/20 02:34:53;;;;;;;60.20;55.53;;;;;;;;;;4198586;28;20063;-65
2023/12/20 02:36:55;;;;;;;53.22;49.63;;;;;;;;;;4197926;28;20037;-65
2023/12/20 02:38:56;;;;;;;55.93;51.47;;;;;;;;;;4198295;28;20119;-65
2023/12/20 02:40:58;;;;;;;58.30;53.13;;;;;;;;;;4197159;28;20040;-64
2023/12/20 02:43:00;;;;;;;56.15;51.78;;;;;;;;;;4195457;28;20468;-64
2023/12/20 02:45:02;;;;;;;59.95;54.75;;;;;;;;;;4195506;28;20098;-65
2023/12/20 02:47:03;;;;;;;59.70;54.05;;;;;;;;;;4196758;28;20040;-65
2023/12/20 02:49:06;;;;;;;57.33;52.83;;;;;;;;;;4196508;28;20040;-65
2023/12/20 02:51:07;;;;;;;54.40;50.03;;;;;;;;;;4196430;28;20039;-64
2023/12/20 02:53:10;;;;;;;54.25;50.25;;;;;;;;;;4205533;28;20044;-64
2023/12/20 02:55:11;;;;;;;54.03;49.43;;;;;;;;;;4204775;28;20503;-65
2023/12/20 02:57:14;;;;;;;57.95;53.28;;;;;;;;;;4214612;28;20039;-64
2023/12/20 02:59:16;;;;;;;60.70;55.58;;;;;;;;;;4214674;28;20446;-65
2023/12/20 03:01:17;;;;;;;58.83;54.15;;;;;;;;;;4196166;28;20092;-65
2023/12/20 03:03:19;;;;;;;61.17;56.40;;;;;;;;;;4203076;28;20411;-65
2023/12/20 03:05:21;;;;;;;64.23;58.90;;;;;;;;;;4197992;28;20097;-65
2023/12/20 03:07:23;;;;;;;63.05;57.50;;;;;;;;;;4198071;28;20472;-65
2023/12/20 03:09:24;;;;;;;65.70;60.33;;;;;;;;;;4210365;28;20499;-64
2023/12/20 03:11:26;;;;;;;61.27;56.27;;;;;;;;;;4211493;28;20064;-64
2023/12/20 03:13:28;;;;;;;60.30;55.28;;;;;;;;;;4196432;28;20279;-64
2023/12/20 03:15:30;;;;;;;63.83;58.40;;;;;;;;;;4197190;28;20051;-64
2023/12/20 03:17:31;;;;;;;60.28;55.22;;;;;;;;;;4197431;28;20044;-67
2023/12/20 03:19:33;;;;;;;62.10;56.70;;;;;;;;;;4197570;28;20158;-67
2023/12/20 03:21:35;;;;;;;66.07;60.20;;;;;;;;;;4197448;28;20048;-66
2023/12/20 03:23:36;;;;;;;68.63;62.67;;;;;;;;;;4196545;28;20052;-66
2023/12/20 03:25:38;;;;;;;65.47;59.65;;;;;;;;;;4197357;28;20108;-66
2023/12/20 03:27:39;;;;;;;66.18;60.22;;;;;;;;;;4179646;28;20052;-66
2023/12/20 03:29:41;;;;;;;64.05;58.30;;;;;;;;;;4197778;28;20369;-66
2023/12/20 03:31:43;;;;;;;81.20;70.38;;;;;;;;;;4197745;28;20144;-66
2023/12/20 03:33:45;;;;;;;82.03;72.70;;;;;;;;;;4197451;28;20044;-67
2023/12/20 03:35:47;;;;;;;70.50;63.13;;;;;;;;;;4197546;28;20048;-66
2023/12/20 03:37:48;;;;;;;72.20;64.85;;;;;;;;;;4197427;28;20079;-66
2023/12/20 03:39:51;;;;;;;67.07;61.55;;;;;;;;;;4197351;28;20070;-66
2023/12/20 03:41:53;;;;;;;67.27;61.63;;;;;;;;;;4197437;28;20047;-66
2023/12/20 03:43:54;;;;;;;65.82;60.35;;;;;;;;;;4184083;28;20495;-66
2023/12/20 03:45:56;;;;;;;61.25;55.97;;;;;;;;;;4188774;28;20091;-66
2023/12/20 03:47:58;;;;;;;61.88;56.92;;;;;;;;;;4196143;28;20561;-66
2023/12/20 03:49:59;;;;;;;57.95;53.58;;;;;;;;;;4197462;28;20042;-66
2023/12/20 03:52:01;;;;;;;57.63;53.33;;;;;;;;;;4186216;28;20067;-67
2023/12/20 03:54:03;;;;;;;59.17;54.13;;;;;;;;;;4204508;28;20045;-66
2023/12/20 03:56:05;;;;;;;62.17;57.20;;;;;;;;;;4197129;28;20055;-66
2023/12/20 03:58:06;;;;;;;58.97;54.57;;;;;;;;;;4197798;28;20094;-67
2023/12/20 04:00:11;;;;;;;56.95;52.80;;;;;;;;;;4196924;28;20040;-67
2023/12/20 04:02:13;;;;;;;55.03;51.17;;;;;;;;;;4186513;28;20052;-66
2023/12/20 04:04:14;;;;;;;56.20;52.22;;;;;;;;;;4180634;28;20543;-66
2023/12/20 04:06:17;;;;;;;48.73;45.73;;;;;;;;;;4195785;28;20594;-66
2023/12/20 04:08:20;;;;;;;51.22;48.28;;;;;;;;;;4187355;28;20081;-66
2023/12/20 04:10:21;;;;;;;49.83;47.10;;;;;;;;;;4213789;28;20494;-66
2023/12/20 04:12:23;;;;;;;50.53;47.53;;;;;;;;;;4214040;28;20050;-66
2023/12/20 04:14:25;;;;;;;50.38;47.58;;;;;;;;;;4197137;28;20040;-66
2023/12/20 04:16:26;;;;;;;48.25;45.30;;;;;;;;;;4197050;28;20560;-66
2023/12/20 04:18:28;;;;;;;50.37;47.30;;;;;;;;;;4197148;28;20088;-66
2023/12/20 04:20:30;;;;;;;51.25;48.08;;;;;;;;;;4197014;28;20283;-66
2023/12/20 04:22:31;;;;;;;51.10;47.88;;;;;;;;;;4212492;28;20052;-66
2023/12/20 04:24:33;;;;;;;47.57;44.47;;;;;;;;;;4195855;28;20055;-66
2023/12/20 04:26:35;;;;;;;48.85;45.75;;;;;;;;;;4197000;28;20036;-64
2023/12/20 04:28:36;;;;;;;46.65;43.50;;;;;;;;;;4200472;28;20033;-64
2023/12/20 04:30:38;;;;;;;49.55;46.53;;;;;;;;;;4200253;28;20099;-64
2023/12/20 04:32:40;;;;;;;54.65;50.95;;;;;;;;;;4200167;28;20119;-64
2023/12/20 04:34:41;;;;;;;49.45;46.22;;;;;;;;;;4200509;28;20118;-64
2023/12/20 04:36:43;;;;;;;46.58;43.35;;;;;;;;;;4198942;28;20055;-64
2023/12/20 04:38:45;;;;;;;54.30;50.45;;;;;;;;;;4200239;28;20074;-64
2023/12/20 04:40:48;;;;;;;52.38;48.97;;;;;;;;;;4199924;28;20094;-64
2023/12/20 04:42:49;;;;;;;;;;;;;;;;;;4200439;28;20032;-64
2023/12/20 04:44:51;;;;;;;56.03;51.92;;;;;;;;;;4215713;28;19928;-64
2023/12/20 04:46:52;;;;;;;57.28;53.10;;;;;;;;;;4200148;28;20041;-63
2023/12/20 04:48:54;;;;;;;57.65;53.42;;;;;;;;;;4200240;28;20037;-64
2023/12/20 04:50:56;;;;;;;58.70;54.00;;;;;;;;;;4203827;28;20085;-64
2023/12/20 04:52:57;;;;;;;61.92;56.97;;;;;;;;;;4216368;28;20040;-64
2023/12/20 04:54:59;;;;;;;59.15;54.50;;;;;;;;;;4199845;28;20036;-65
2023/12/20 04:57:01;;;;;;;59.95;55.28;;;;;;;;;;4199823;28;20048;-64
2023/12/20 04:59:02;;;;;;;88.00;78.65;;;;;;;;;;4200067;28;20045;-63
2023/12/20 05:01:05;;;;;;;81.22;73.15;;;;;;;;;;4199397;28;20082;-64
2023/12/20 05:03:10;;;;;;;129.45;65.95;;;;;;;;;;4199607;28;20543;-64
2023/12/20 05:05:11;;;;;;;102.65;58.92;;;;;;;;;;4198476;28;20056;-64
2023/12/20 05:07:13;;;;;;;82.70;61.90;;;;;;;;;;4199678;28;20051;-64
2023/12/20 05:09:15;;;;;;;61.72;55.13;;;;;;;;;;4201331;28;20047;-63
2023/12/20 05:11:17;;;;;;;158.68;51.83;;;;;;;;;;4199571;28;20092;-64
2023/12/20 05:13:18;;;;;;;58.42;49.60;;;;;;;;;;4199590;28;20043;-63
2023/12/20 05:15:20;;;;;;;67.30;54.40;;;;;;;;;;4198658;28;20041;-64
2023/12/20 05:17:22;;;;;;;53.45;50.17;;;;;;;;;;4199501;28;20123;-64
2023/12/20 05:19:23;;;;;;;47.28;44.60;;;;;;;;;;4199786;28;20052;-64
2023/12/20 05:21:25;;;;;;;49.30;46.37;;;;;;;;;;4200559;28;20119;-64
2023/12/20 05:23:29;;;;;;;53.45;50.13;;;;;;;;;;4199433;28;20290;-64
2023/12/20 05:25:31;;;;;;;55.20;51.28;;;;;;;;;;4199417;28;20592;-64
2023/12/20 05:27:33;;;;;;;56.03;52.20;;;;;;;;;;4199282;28;20047;-64
2023/12/20 05:29:35;;;;;;;55.13;51.63;;;;;;;;;;4199370;28;20470;-64
2023/12/20 05:31:38;;;;;;;58.83;54.67;;;;;;;;;;4199516;28;20052;-64
2023/12/20 05:33:39;;;;;;;55.20;51.15;;;;;;;;;;4199550;28;20074;-64
2023/12/20 05:35:41;;;;;;;51.07;47.40;;;;;;;;;;4199571;28;20127;-64
2023/12/20 05:37:43;;;;;;;50.45;47.00;;;;;;;;;;4199556;28;20283;-66
2023/12/20 05:39:45;;;;;;;50.00;46.60;;;;;;;;;;4198562;28;20083;-66
2023/12/20 05:41:47;;;;;;;48.42;45.63;;;;;;;;;;4199497;28;20067;-66
2023/12/20 05:43:51;;;;;;;46.78;43.97;;;;;;;;;;4199423;28;20442;-66
2023/12/20 05:45:53;;;;;;;57.60;53.42;;;;;;;;;;4197647;28;20051;-66
2023/12/20 05:47:54;;;;;;;58.65;54.13;;;;;;;;;;4199430;28;20047;-66
2023/12/20 05:49:56;;;;;;;57.67;53.40;;;;;;;;;;4204761;28;20040;-66
2023/12/20 05:51:58;;;;;;;55.13;51.13;;;;;;;;;;4205498;28;20086;-66
2023/12/20 05:54:00;;;;;;;54.42;50.88;;;;;;;;;;4206765;28;20106;-66
2023/12/20 05:56:02;;;;;;;55.97;52.63;;;;;;;;;;4199294;28;20423;-66
2023/12/20 05:58:04;;;;;;;55.83;52.20;;;;;;;;;;4199309;28;20488;-66
2023/12/20 06:00:07;;;;;;;55.50;51.58;;;;;;;;;;4198952;28;20332;-66
2023/12/20 06:02:08;;;;;;;55.17;51.17;;;;;;;;;;4198476;28;20098;-66
2023/12/20 06:04:10;;;;;;;54.05;50.40;;;;;;;;;;4198972;28;20040;-66
2023/12/20 06:06:12;;;;;;;52.53;48.97;;;;;;;;;;4196450;28;20476;-66
2023/12/20 06:08:17;;;;;;;57.22;53.50;;;;;;;;;;4194915;28;20048;-66
2023/12/20 06:10:19;;;;;;;52.08;48.40;;;;;;;;;;4215579;28;20032;-66
2023/12/20 06:12:21;;;;;;;53.70;50.05;;;;;;;;;;4215121;28;20047;-66
2023/12/20 06:14:23;;;;;;;56.60;52.88;;;;;;;;;;4215356;28;20040;-62
2023/12/20 06:16:24;;;;;;;56.40;52.30;;;;;;;;;;4215243;28;20386;-63
2023/12/20 06:18:26;;;;;;;55.30;51.78;;;;;;;;;;4209330;28;20037;-62
2023/12/20 06:20:28;;;;;;;58.77;54.60;;;;;;;;;;4194170;28;20268;-62
2023/12/20 06:22:29;;;;;;;58.03;53.90;;;;;;;;;;4198436;28;20496;-63
2023/12/20 06:24:33;;;;;;;55.10;51.72;;;;;;;;;;4198837;28;20594;-62
2023/12/20 06:26:35;;;;;;;55.08;51.38;;;;;;;;;;4191887;28;20072;-63
2023/12/20 06:28:36;;;;;;;54.08;50.05;;;;;;;;;;4198475;28;20446;-63
2023/12/20 06:30:43;;;;;;;54.40;50.60;;;;;;;;;;4198703;28;20112;-63
2023/12/20 06:32:46;;;;;;;58.38;54.33;;;;;;;;;;4197159;28;20111;-63
2023/12/20 06:34:48;;;;;;;55.33;51.55;;;;;;;;;;4198307;28;20032;-62
2023/12/20 06:36:50;;;;;;;57.40;53.53;;;;;;;;;;4197305;28;20547;-62
2023/12/20 06:38:52;;;;;;;53.35;50.03;;;;;;;;;;4198421;28;20041;-63
2023/12/20 06:40:53;;;;;;;56.45;52.38;;;;;;;;;;4198385;28;20040;-63
2023/12/20 06:42:55;;;;;;;58.15;53.72;;;;;;;;;;4197051;28;20058;-63
2023/12/20 06:45:09;;;;;;;55.35;52.00;;;;;;;;;;4198304;28;20068;-63
2023/12/20 06:47:14;;;;;;;49.22;46.45;;;;;;;;;;4182654;28;20036;-63
2023/12/20 06:49:16;;;;;;;51.90;48.38;;;;;;;;;;4181449;28;20483;-63
2023/12/20 06:51:19;;;;;;;53.20;49.75;;;;;;;;;;4181892;28;20045;-63
2023/12/20 06:53:21;;;;;;;54.90;51.10;;;;;;;;;;4205968;28;20075;-62
2023/12/20 06:55:22;;;;;;;55.47;51.90;;;;;;;;;;4198100;28;20040;-62
2023/12/20 06:57:25;;;;;;;51.55;48.30;;;;;;;;;;4197032;28;20044;-62
2023/12/20 06:59:27;;;;;;;49.53;46.90;;;;;;;;;;4196815;28;20098;-62
2023/12/20 07:01:29;;;;;;;46.05;42.92;;;;;;;;;;4197473;28;20051;-62
2023/12/20 07:03:31;;;;;;;47.90;45.13;;;;;;;;;;4196650;28;20044;-62
2023/12/20 07:05:33;;;;;;;52.72;49.35;;;;;;;;;;4197778;28;20041;-63
2023/12/20 07:07:34;;;;;;;56.40;52.22;;;;;;;;;;4197772;28;20090;-62
2023/12/20 07:09:38;;;;;;;61.28;56.53;;;;;;;;;;4211692;28;20407;-63
2023/12/20 07:11:40;;;;;;;59.08;53.95;;;;;;;;;;4214312;28;20044;-62
2023/12/20 07:13:41;;;;;;;56.88;52.67;;;;;;;;;;4214449;28;20499;-63
2023/12/20 07:15:43;;;;;;;59.78;55.55;;;;;;;;;;4214699;28;20078;-63
2023/12/20 07:17:45;;;;;;;56.67;52.50;;;;;;;;;;4214383;28;20610;-62
2023/12/20 07:19:47;;;;;;;62.40;57.85;;;;;;;;;;4214623;28;20068;-62
2023/12/20 07:21:49;;;;;;;57.17;53.13;;;;;;;;;;4214303;28;20036;-63
2023/12/20 07:23:50;;;;;;;51.70;48.38;;;;;;;;;;4229857;28;20061;-62
2023/12/20 07:25:52;;;;;;;53.92;50.33;;;;;;;;;;4214571;28;20685;-63
2023/12/20 07:27:54;;;;;;;52.17;48.77;;;;;;;;;;4214333;28;20479;-62
2023/12/20 07:29:56;;;;;;;51.92;48.55;;;;;;;;;;4214278;28;20402;-62
2023/12/20 07:31:57;;;;;;;56.47;52.70;;;;;;;;;;4204511;28;20035;-62
2023/12/20 07:33:59;;;;;;;60.13;55.55;;;;;;;;;;4197437;28;20041;-63
2023/12/20 07:36:02;;;;;;;54.87;51.00;;;;;;;;;;4197678;28;20503;-63
2023/12/20 07:38:04;;;;;;;51.08;47.47;;;;;;;;;;4196123;28;20322;-62
2023/12/20 07:40:06;;;;;;;51.47;48.17;;;;;;;;;;4197184;28;20040;-63
2023/12/20 07:42:08;;;;;;;56.13;52.63;;;;;;;;;;4197443;28;20040;-63
2023/12/20 07:44:10;;;;;;;63.92;58.63;;;;;;;;;;4198150;28;20056;-63
2023/12/20 07:46:11;;;;;;;61.65;57.30;;;;;;;;;;4197249;28;20079;-63
2023/12/20 07:48:13;;;;;;;58.80;54.00;;;;;;;;;;4197281;28;20040;-63
2023/12/20 07:50:15;;;;;;;56.35;52.38;;;;;;;;;;4197349;28;20815;-63
2023/12/20 07:52:18;;;;;;;56.35;52.30;;;;;;;;;;4202388;28;20044;-63
2023/12/20 07:54:20;;;;;;;59.45;55.10;;;;;;;;;;4202168;28;20041;-63
2023/12/20 07:56:21;;;;;;;59.22;54.70;;;;;;;;;;4197397;28;20041;-63
2023/12/20 07:58:23;;;;;;;60.22;55.35;;;;;;;;;;4197294;28;20625;-60
2023/12/20 08:00:41;;;;;;;56.97;52.92;;;;;;;;;;4196918;28;20565;-61
2023/12/20 08:02:43;;;;;;;55.40;51.47;;;;;;;;;;4196606;28;20519;-60
2023/12/20 08:04:45;;;;;;;49.80;46.67;;;;;;;;;;4197201;28;20076;-60
2023/12/20 08:06:47;;;;;;;;;;;;;;;;;;4196185;28;20056;-61
2023/12/20 08:08:49;;;;;;;52.28;49.17;;;;;;;;;;4204505;28;19920;-61
2023/12/20 08:11:02;;;;;;;51.60;48.33;;;;;;;;;;4212653;28;20085;-60
2023/12/20 08:13:04;;;;;;;52.50;49.07;;;;;;;;;;4214118;28;20043;-60
2023/12/20 08:15:06;;;;;;;49.37;46.83;;;;;;;;;;4213754;28;20062;-61
2023/12/20 08:17:07;;;;;;;48.17;44.92;;;;;;;;;;4212697;28;20036;-60
2023/12/20 08:19:09;;;;;;;47.47;44.35;;;;;;;;;;4213725;28;20396;-60
2023/12/20 08:21:11;;;;;;;49.97;46.90;;;;;;;;;;4213904;28;20086;-60
2023/12/20 08:23:13;;;;;;;47.15;44.10;;;;;;;;;;4213668;28;20289;-60
2023/12/20 08:25:15;;;;;;;45.47;42.80;;;;;;;;;;4213597;28;20499;-61
2023/12/20 08:27:17;;;;;;;48.72;46.42;;;;;;;;;;4224825;28;20507;-60
2023/12/20 08:29:18;;;;;;;43.10;40.90;;;;;;;;;;4180423;28;20067;-60
2023/12/20 08:31:21;;;;;;;70.65;63.60;;;;;;;;;;4180407;28;20033;-61
2023/12/20 08:33:23;;;;;;;61.20;56.22;;;;;;;;;;4180527;28;20052;-61
2023/12/20 08:35:24;;;;;;;77.78;70.57;;;;;;;;;;4180683;28;20120;-61
2023/12/20 08:37:26;;;;;;;70.50;63.95;;;;;;;;;;4180592;28;20047;-61
2023/12/20 08:39:29;;;;;;;81.53;72.82;;;;;;;;;;4184381;28;20052;-61
2023/12/20 08:41:32;;;;;;;70.97;63.47;;;;;;;;;;4180213;28;20037;-61
2023/12/20 08:43:36;;;;;;;72.28;65.25;;;;;;;;;;4180199;28;20045;-60
2023/12/20 08:45:38;;;;;;;73.03;66.53;;;;;;;;;;4180241;28;20070;-61
2023/12/20 08:47:41;;;;;;;65.03;59.28;;;;;;;;;;4180412;28;20428;-61
2023/12/20 08:49:43;;;;;;;61.72;55.50;;;;;;;;;;4178988;28;20060;-61
2023/12/20 08:51:45;;;;;;;60.30;54.90;;;;;;;;;;4181409;28;20063;-62
2023/12/20 08:53:47;;;;;;;57.47;52.20;;;;;;;;;;4212593;28;20040;-60
2023/12/20 08:55:49;;;;;;;59.45;54.60;;;;;;;;;;4197131;28;20040;-61
2023/12/20 08:57:52;;;;;;;54.25;49.45;;;;;;;;;;4196837;28;20055;-61
2023/12/20 08:59:54;;;;;;;59.20;54.35;;;;;;;;;;4197017;28;20049;-61
2023/12/20 09:01:56;;;;;;;53.17;49.33;;;;;;;;;;4196363;28;20056;-61
2023/12/20 09:03:57;;;;;;;53.17;49.25;;;;;;;;;;4196790;28;20037;-61
2023/12/20 09:05:59;;;;;;;52.35;48.22;;;;;;;;;;4195596;28;20041;-61
2023/12/20 09:08:02;;;;;;;46.95;43.63;;;;;;;;;;4197403;28;20119;-61
2023/12/20 09:10:03;;;;;;;58.25;53.25;;;;;;;;;;4213332;28;20077;-61
2023/12/20 09:12:05;;;;;;;46.83;43.80;;;;;;;;;;4213279;28;20040;-61
2023/12/20 09:14:07;;;;;;;51.30;47.40;;;;;;;;;;4213999;28;20316;-61
2023/12/20 09:16:08;;;;;;;41.83;39.53;;;;;;;;;;4215149;28;20507;-62
2023/12/20 09:18:10;;;;;;;46.70;43.37;;;;;;;;;;4216850;28;20047;-61
2023/12/20 09:20:13;;;;;;;46.13;42.83;;;;;;;;;;4216183;28;20422;-61
2023/12/20 09:22:15;;;;;;;42.88;39.88;;;;;;;;;;4216486;28;20343;-63
2023/12/20 09:24:17;;;;;;;42.97;40.43;;;;;;;;;;4207822;28;20037;-62
2023/12/20 09:26:19;;;;;;;39.97;37.42;;;;;;;;;;4199407;28;20075;-63
2023/12/20 09:28:20;;;;;;;37.08;34.70;;;;;;;;;;4199439;28;20067;-62
2023/12/20 09:30:22;;;;;;;39.75;37.25;;;;;;;;;;4198115;28;20033;-62
2023/12/20 09:32:29;;;;;;;46.35;43.40;;;;;;;;;;4199577;28;20053;-63
2023/12/20 09:34:31;;;;;;;45.75;42.70;;;;;;;;;;4199410;28;20369;-62
2023/12/20 09:36:35;;;;;;;45.47;41.92;;;;;;;;;;4199325;28;20041;-62
2023/12/20 09:38:39;;;;;;;41.55;39.13;;;;;;;;;;4199364;28;20403;-62
2023/12/20 09:40:41;;;;;;;43.00;40.22;;;;;;;;;;4199258;28;20044;-62
2023/12/20 09:42:43;;;;;;;49.47;45.50;;;;;;;;;;4199356;28;20091;-63
2023/12/20 09:44:44;;;;;;;46.53;43.15;;;;;;;;;;4199220;28;20495;-62
2023/12/20 09:46:49;;;;;;;51.42;47.05;;;;;;;;;;4197792;28;20048;-62
2023/12/20 09:48:52;;;;;;;51.70;47.55;;;;;;;;;;4199138;28;20047;-62
2023/12/20 09:50:54;;;;;;;54.88;49.85;;;;;;;;;;4199164;28;20036;-62
2023/12/20 09:52:59;;;;;;;53.63;49.80;;;;;;;;;;4199056;28;20093;-63
2023/12/20 09:55:01;;;;;;;51.63;47.47;;;;;;;;;;4199362;28;20037;-62
2023/12/20 09:57:04;;;;;;;54.10;49.92;;;;;;;;;;4199035;28;20059;-61
2023/12/20 09:59:05;;;;;;;49.78;45.80;;;;;;;;;;4199098;28;20052;-61
2023/12/20 10:01:07;;;;;;;46.95;42.95;;;;;;;;;;4198641;28;20128;-62
2023/12/20 10:03:09;;;;;;;48.70;45.50;;;;;;;;;;4198699;28;20446;-62
2023/12/20 10:05:15;;;;;;;48.78;45.17;;;;;;;;;;4199344;28;20037;-62
2023/12/20 10:07:17;;;;;;;50.75;46.72;;;;;;;;;;4198756;28;20086;-62
2023/12/20 10:09:18;;;;;;;45.83;42.60;;;;;;;;;;4210304;28;20476;-62
2023/12/20 10:11:20;;;;;;;45.33;42.30;;;;;;;;;;4215682;28;20289;-62
2023/12/20 10:13:22;;;;;;;50.38;46.80;;;;;;;;;;4215535;28;20043;-62
2023/12/20 10:15:23;;;;;;;49.50;45.28;;;;;;;;;;4215439;28;20074;-61
2023/12/20 10:17:29;;;;;;;49.13;45.45;;;;;;;;;;4214375;28;20404;-61
2023/12/20 10:19:31;;;;;;;49.10;45.05;;;;;;;;;;4215377;28;20048;-65
2023/12/20 10:21:33;;;;;;;50.83;46.58;;;;;;;;;;4181963;28;20466;-65
2023/12/20 10:23:34;;;;;;;48.47;44.88;;;;;;;;;;4182309;28;20077;-65
2023/12/20 10:25:36;;;;;;;50.90;46.80;;;;;;;;;;4182056;28;20044;-64
2023/12/20 10:27:38;;;;;;;48.40;44.45;;;;;;;;;;4181885;28;20037;-64
2023/12/20 10:29:39;;;;;;;43.47;40.35;;;;;;;;;;4181993;28;20041;-64
2023/12/20 10:31:42;;;;;;;39.78;37.45;;;;;;;;;;4181917;28;20496;-65
2023/12/20 10:33:44;;;;;;;43.53;40.25;;;;;;;;;;4196244;28;20098;-64
2023/12/20 10:35:47;;;;;;;51.43;47.37;;;;;;;;;;4200836;28;20489;-64
2023/12/20 10:37:50;;;;;;;42.58;39.35;;;;;;;;;;4215052;28;20339;-65
2023/12/20 10:39:56;;;;;;;38.63;36.20;;;;;;;;;;4215337;28;20043;-64
2023/12/20 10:41:58;;;;;;;42.47;39.67;;;;;;;;;;4215185;28;20444;-64
2023/12/20 10:44:04;;;;;;;40.55;37.75;;;;;;;;;;4215025;28;20040;-64
2023/12/20 10:46:06;;;;;;;40.88;38.58;;;;;;;;;;4212384;28;20074;-64
2023/12/20 10:48:10;;;;;;;38.65;36.75;;;;;;;;;;4197066;28;20037;-65
2023/12/20 10:50:11;;;;;;;39.70;37.35;;;;;;;;;;4196932;28;20044;-64
2023/12/20 10:52:13;;;;;;;37.73;35.63;;;;;;;;;;4199677;28;20040;-64
2023/12/20 10:54:15;;;;;;;36.63;34.95;;;;;;;;;;4197833;28;20415;-64
2023/12/20 10:56:23;;;;;;;38.53;36.10;;;;;;;;;;4196835;28;20048;-65
2023/12/20 10:58:27;;;;;;;32.05;30.38;;;;;;;;;;4197588;28;20283;-65
2023/12/20 11:00:32;;;;;;;32.97;31.45;;;;;;;;;;4195761;28;20458;-64
2023/12/20 11:02:36;;;;;;;34.22;32.53;;;;;;;;;;4197624;28;20059;-64
2023/12/20 11:04:47;;;;;;;49.85;46.00;;;;;;;;;;4199058;28;20044;-64
2023/12/20 11:06:51;;;;;;;41.33;38.72;;;;;;;;;;4196993;28;20064;-64
2023/12/20 11:08:53;;;;;;;37.05;34.83;;;;;;;;;;4194123;28;20147;-64
2023/12/20 11:11:07;;;;;;;33.43;31.97;;;;;;;;;;4196591;28;20542;-64
2023/12/20 11:13:21;;;;;;;37.00;34.80;;;;;;;;;;4192074;28;20128;-64
2023/12/20 11:15:24;;;;;;;35.25;33.15;;;;;;;;;;4195132;28;20094;-64
2023/12/20 11:17:26;;;;;;;34.33;32.63;;;;;;;;;;4197119;28;20084;-64
2023/12/20 11:19:28;;;;;;;33.60;31.90;;;;;;;;;;4197785;28;20037;-64
2023/12/20 11:21:30;;;;;;;33.87;31.77;;;;;;;;;;4197423;28;20294;-64
2023/12/20 11:23:33;;;;;;;34.03;32.27;;;;;;;;;;4197540;28;20279;-64
2023/12/20 11:25:48;;;;;;;34.58;32.97;;;;;;;;;;4196197;28;20063;-65
2023/12/20 11:28:09;;;;;;;33.92;31.92;;;;;;;;;;4197149;28;20047;-64
2023/12/20 11:30:11;;;;;;;37.38;35.03;;;;;;;;;;4197433;28;20082;-61
2023/12/20 11:32:26;;;;;;;32.38;30.50;;;;;;;;;;4195753;28;20434;-61
2023/12/20 11:34:35;;;;;;;34.78;32.88;;;;;;;;;;4193904;28;20044;-62
2023/12/20 11:36:39;;;;;;;38.15;35.70;;;;;;;;;;4195368;28;20120;-62
2023/12/20 11:38:57;;;;;;;37.50;35.00;;;;;;;;;;4197315;28;20392;-62
2023/12/20 11:41:03;;;;;;;38.40;35.70;;;;;;;;;;4197356;28;20492;-61
2023/12/20 11:43:05;;;;;;;53.72;48.08;;;;;;;;;;4197046;28;20054;-61
2023/12/20 11:45:15;;;;;;;41.45;37.97;;;;;;;;;;4197299;28;20044;-61
2023/12/20 11:47:19;;;;;;;40.60;37.45;;;;;;;;;;4197632;28;20071;-62
2023/12/20 11:49:22;;;;;;;42.97;39.78;;;;;;;;;;4197246;28;20037;-61
2023/12/20 11:51:24;;;;;;;37.60;34.70;;;;;;;;;;4196119;28;20040;-62
2023/12/20 11:53:30;;;;;;;39.15;36.50;;;;;;;;;;4196954;28;20032;-61